Time;durP1;ratioP1;P1;durP2;ratioP2;P2;SDS_P1;SDS_P2;PMS_P1;PMS_P2;Temp;Humidity;BMP_temperature;BMP_pressure;BME280_temperature;BME280_humidity;BME280_pressure;Samples;Min_cycle;Max_cycle;Signal;HPM_P1;HPM_P2
2022/02/06 00:02:37;;;;;;;7.55;3.72;;;3.30;88.70;;;;;;6246743;22;20020;-96
2022/02/06 00:05:31;;;;;;;11.02;3.13;;;;;;;;;;6256005;23;20012;-96
2022/02/06 00:14:00;;;;;;;4.05;2.53;;;;;;;;;;6256608;22;20517;-96
2022/02/06 00:16:43;;;;;;;8.32;3.72;;;;;;;;;;6235753;23;20012;-96
2022/02/06 00:28:58;;;;;;;11.15;2.92;;;;;;;;;;6259008;23;20035;-96
2022/02/06 00:35:37;;;;;;;19.27;5.03;;;;;;;;;;6257023;23;20015;-96
2022/02/06 00:55:26;;;;;;;3.72;2.67;;;;;;;;;;6256599;23;20015;-96
2022/02/06 07:09:29;;;;;;;3.40;2.72;;;;;;;;;;6249415;22;20111;-96
2022/02/06 07:21:09;;;;;;;;;;;;;;;;;;6248985;22;20059;-96
2022/02/06 07:23:48;;;;;;;13.98;4.60;;;;;;;;;;6254874;23;19994;-96
2022/02/06 07:26:34;;;;;;;6.32;3.40;;;;;;;;;;6226413;23;20088;-96
2022/02/06 07:31:57;;;;;;;4.05;2.25;;;;;;;;;;6234085;23;20019;-95
2022/02/06 07:34:25;;;;;;;3.55;2.53;;;;;;;;;;6225235;23;20008;-96
2022/02/06 07:36:56;;;;;;;4.03;2.92;;;;;;;;;;6250667;23;19996;-96
2022/02/06 07:39:40;;;;;;;9.82;2.70;;;;;;;;;;6253984;23;20010;-96
2022/02/06 07:42:09;;;;;;;4.38;3.22;;;;;;;;;;6254288;23;20008;-96
2022/02/06 07:44:49;;;;;;;7.97;3.25;;;;;;;;;;6258173;23;20075;-96
2022/02/06 07:47:20;;;;;;;;;;;3.40;91.00;;;;;;6255474;23;20005;-96
2022/02/06 07:49:52;;;;;;;10.00;2.05;;;;;;;;;;6250895;23;19899;-96
2022/02/06 07:52:21;;;;;;;20.13;6.72;;;;;;;;;;6252539;23;20008;-96
2022/02/06 07:54:56;;;;;;;6.75;5.82;;;;;;;;;;6250662;23;20031;-96
2022/02/06 07:57:26;;;;;;;10.95;4.60;;;;;;;;;;6252796;23;20012;-96
2022/02/06 07:59:53;;;;;;;10.23;4.72;;;;;;;;;;6252629;23;20000;-96
2022/02/06 08:02:19;;;;;;;6.68;4.78;;;;;;;;;;6253309;23;20062;-96
2022/02/06 08:04:47;;;;;;;10.25;5.03;;;;;;;;;;6225278;23;20004;-96
2022/02/06 08:07:14;;;;;;;6.53;4.18;;;;;;;;;;6252692;23;20004;-96
2022/02/06 08:10:01;;;;;;;10.10;4.97;;;;;;;;;;6225193;23;20004;-96
2022/02/06 08:12:30;;;;;;;6.55;4.40;;;;;;;;;;6255228;23;20021;-96
2022/02/06 08:14:59;;;;;;;10.55;3.97;;;;;;;;;;6256818;23;20312;-96
2022/02/06 08:17:29;;;;;;;9.45;4.35;;;;;;;;;;6229228;23;20091;-96
2022/02/06 08:19:59;;;;;;;4.07;2.85;;;;;;;;;;6254617;23;20447;-96
2022/02/06 08:22:26;;;;;;;4.45;3.33;;;;;;;;;;6203887;23;20359;-96
2022/02/06 08:24:52;;;;;;;3.33;2.65;;;;;;;;;;6257783;23;20448;-96
2022/02/06 08:27:19;;;;;;;5.13;2.72;;;;;;;;;;6228312;23;20004;-96
2022/02/06 08:29:47;;;;;;;6.57;3.55;;;;;;;;;;6256892;23;20042;-96
2022/02/06 08:32:29;;;;;;;10.77;2.03;;;;;;;;;;6181300;23;20034;-96
2022/02/06 08:35:08;;;;;;;7.53;2.22;;;;;;;;;;6257478;22;20024;-96
2022/02/06 08:37:44;;;;;;;4.72;3.05;;;;;;;;;;6260923;23;20472;-96
2022/02/06 08:40:26;;;;;;;6.13;3.55;;;;;;;;;;6264077;23;20028;-96
2022/02/06 08:42:57;;;;;;;4.75;2.63;;;;;;;;;;6231931;23;20008;-96
2022/02/06 08:45:29;;;;;;;4.53;3.38;;;;;;;;;;6229178;23;20008;-96
2022/02/06 08:47:56;;;;;;;7.32;2.58;;;;;;;;;;6254370;23;20000;-96
2022/02/06 08:50:22;;;;;;;6.00;2.20;;;;;;;;;;6252026;23;20011;-96
2022/02/06 08:52:48;;;;;;;7.38;3.13;;;;;;;;;;6250193;23;20352;-96
2022/02/06 08:55:15;;;;;;;12.77;4.88;;;;;;;;;;6248992;23;20355;-96
2022/02/06 08:57:49;;;;;;;17.45;4.45;;;;;;;;;;6248881;23;20004;-96
2022/02/06 09:00:18;;;;;;;6.32;4.20;;;;;;;;;;6248915;23;20435;-96
2022/02/06 09:02:47;;;;;;;5.22;4.05;;;;;;;;;;6248356;23;20517;-96
2022/02/06 09:05:13;;;;;;;10.85;6.22;;;;;;;;;;6249096;23;20027;-96
2022/02/06 09:07:41;;;;;;;16.20;5.95;;;;;;;;;;6250167;23;20000;-96
2022/02/06 09:10:07;;;;;;;6.20;3.75;;;;;;;;;;6249583;23;20000;-96
2022/02/06 09:12:40;;;;;;;11.38;7.07;;;;;;;;;;6250118;23;20053;-96
2022/02/06 09:15:07;;;;;;;8.38;4.47;;;;;;;;;;6247699;23;20023;-95
2022/02/06 09:17:33;;;;;;;22.80;5.32;;;;;;;;;;6249529;23;20004;-96
2022/02/06 09:20:02;;;;;;;12.10;5.55;;;;;;;;;;6249573;23;20011;-96
2022/02/06 09:22:28;;;;;;;8.18;3.88;;;;;;;;;;6250946;23;20012;-96
2022/02/06 09:24:54;;;;;;;15.85;4.80;;;;;;;;;;6223764;23;20511;-96
2022/02/06 09:27:27;;;;;;;13.30;5.50;;;;;;;;;;6251022;23;20580;-96
2022/02/06 09:29:53;;;;;;;7.70;4.50;;;;;;;;;;6251289;23;20008;-96
2022/02/06 09:37:29;;;;;;;7.50;3.35;;;;;;;;;;6222999;23;20015;-96
2022/02/06 09:39:56;;;;;;;6.47;2.65;;;;;;;;;;6249871;23;20416;-96
2022/02/06 09:42:32;;;;;;;4.15;2.75;;;;;;;;;;6219724;23;20012;-96
2022/02/06 09:45:02;;;;;;;7.80;2.42;;;;;;;;;;6249733;23;20083;-96
2022/02/06 09:47:29;;;;;;;6.68;2.58;;;;;;;;;;6248289;23;20012;-96
2022/02/06 09:50:14;;;;;;;4.07;1.45;;;;;;;;;;6231749;23;20004;-96
2022/02/06 09:52:41;;;;;;;5.82;1.83;;;;;;;;;;6233024;23;20004;-96
2022/02/06 09:55:13;;;;;;;3.67;2.90;;;;;;;;;;6222504;23;20242;-96
2022/02/06 09:58:11;;;;;;;3.17;2.88;;;;;;;;;;6246728;23;20231;-96
2022/02/06 10:00:44;;;;;;;6.32;2.35;;;;;;;;;;6219029;23;20019;-95
2022/02/06 10:03:14;;;;;;;6.20;2.83;;;;;;;;;;6217453;23;20332;-95
2022/02/06 10:05:42;;;;;;;7.10;2.97;;;;;;;;;;6244354;23;20084;-92
2022/02/06 10:08:15;;;;;;;7.13;2.78;;;;;;;;;;6218232;23;20012;-92
2022/02/06 10:10:47;;;;;;;11.85;3.83;;;;;;;;;;6245068;23;20088;-90
2022/02/06 10:13:13;;;;;;;8.13;2.53;;;;;;;;;;6218069;23;20050;-93
2022/02/06 10:15:39;;;;;;;13.10;5.25;;;;;;;;;;6217832;23;20628;-90
2022/02/06 10:18:05;;;;;;;3.25;1.60;;;;;;;;;;6217820;23;20347;-92
2022/02/06 10:20:43;;;;;;;2.05;1.40;;;;;;;;;;6218634;23;20008;-91
2022/02/06 10:23:19;;;;;;;4.55;2.80;;;;;;;;;;6245145;23;20026;-91
2022/02/06 10:25:48;;;;;;;8.32;2.30;;;;;;;;;;6244818;23;20015;-92
2022/02/06 10:28:40;;;;;;;6.47;2.38;;;;;;;;;;6244750;23;20505;-89
2022/02/06 10:31:03;;;;;;;2.37;1.30;;;;;;;;;;6243820;23;20463;-92
2022/02/06 10:33:48;;;;;;;8.55;2.10;;;;;;;;;;6243601;23;20000;-94
2022/02/06 10:36:18;;;;;;;3.58;2.20;;;;;;;;;;6244131;23;20027;-93
2022/02/06 10:38:46;;;;;;;9.55;2.83;;;;;;;;;;6217763;23;20044;-95
2022/02/06 10:41:24;;;;;;;2.47;1.33;;;;;;;;;;6217147;23;20004;-95
2022/02/06 10:43:49;;;;;;;;;;;;;;;;;;6218128;23;20008;-94
2022/02/06 10:46:18;;;;;;;0.70;0.70;;;;;;;;;;6217804;23;19958;-93
2022/02/06 10:48:51;;;;;;;5.25;1.48;;;;;;;;;;6243297;23;20019;-94
2022/02/06 10:51:36;;;;;;;8.85;1.77;;;;;;;;;;6244760;23;20480;-94
2022/02/06 10:54:03;;;;;;;4.93;1.92;;;;;;;;;;6244031;23;20010;-94
2022/02/06 10:56:29;;;;;;;1.88;1.00;;;;;;;;;;6244191;23;20335;-93
2022/02/06 10:58:59;;;;;;;1.70;0.80;;;;;;;;;;6242315;23;20004;-94
2022/02/06 11:01:26;;;;;;;3.95;1.30;;;;;;;;;;6244658;23;20010;-95
2022/02/06 11:04:07;;;;;;;0.60;0.60;;;;;;;;;;6243652;23;20465;-95
2022/02/06 11:07:04;;;;;;;0.93;0.77;;;;;;;;;;6218647;23;20019;-93
2022/02/06 11:09:31;;;;;;;2.53;1.20;;;;;;;;;;6244476;23;20024;-95
2022/02/06 11:12:01;;;;;;;4.53;0.88;;;;;;;;;;6244751;23;20008;-95
2022/02/06 11:14:29;;;;;;;3.28;1.27;;;;;;;;;;6244815;23;20030;-94
2022/02/06 11:16:56;;;;;;;1.40;1.30;;;;;;;;;;6217984;23;20000;-95
2022/02/06 11:19:22;;;;;;;1.20;0.87;;;;;;;;;;6244570;23;20004;-94
2022/02/06 11:22:07;;;;;;;5.40;1.40;;;;;;;;;;6217914;23;20262;-93
2022/02/06 11:24:42;;;;;;;1.75;1.00;;;;;;;;;;6217716;23;20006;-94
2022/02/06 11:27:08;;;;;;;0.80;0.80;;;;;;;;;;6217292;23;20004;-94
2022/02/06 11:29:40;;;;;;;3.35;1.02;;;;;;;;;;6244980;23;19996;-94
2022/02/06 11:32:10;;;;;;;2.17;1.05;;;;;;;;;;6217015;23;20038;-95
2022/02/06 11:34:45;;;;;;;3.83;0.88;;;;;;;;;;6244561;23;20355;-94
2022/02/06 11:45:34;;;;;;;5.45;0.80;;;;;;;;;;6244967;23;20008;-93
2022/02/06 11:48:03;;;;;;;1.17;0.88;;;;;;;;;;6243614;23;20316;-93
2022/02/06 11:50:47;;;;;;;0.50;0.50;;;;;;;;;;6244367;23;21155;-93
2022/02/06 11:53:38;;;;;;;0.80;0.55;;;;;;;;;;6244892;23;20335;-94
2022/02/06 11:56:21;;;;;;;0.52;0.52;;;;;;;;;;6243671;23;20007;-92
2022/02/06 11:58:54;;;;;;;1.10;0.75;;;;;;;;;;6244559;23;20069;-94
2022/02/06 12:01:21;;;;;;;0.50;0.50;;;;;;;;;;6243974;23;20028;-93
2022/02/06 12:03:53;;;;;;;1.02;0.73;;;;;;;;;;6243941;23;20587;-94
2022/02/06 12:06:38;;;;;;;1.08;0.98;;;;;;;;;;6245449;23;20076;-93
2022/02/06 12:09:23;;;;;;;0.50;0.50;;;;;;;;;;6246287;23;20054;-93
2022/02/06 12:12:05;;;;;;;5.70;0.95;;;;;;;;;;6245890;23;20008;-95
2022/02/06 12:14:39;;;;;;;0.57;0.57;;;;;;;;;;6246430;23;20006;-93
2022/02/06 12:18:05;;;;;;;5.93;0.75;;;;;;;;;;6245793;23;20027;-94
2022/02/06 12:20:30;;;;;;;1.80;0.70;;;;;;;;;;6237453;23;20004;-95
2022/02/06 12:23:00;;;;;;;0.80;0.63;;;;;;;;;;6213597;23;20036;-95
2022/02/06 12:25:36;;;;;;;1.58;0.82;;;;;;;;;;6245084;23;20011;-96
2022/02/06 12:28:22;;;;;;;0.50;0.50;;;;;;;;;;6246378;23;20004;-93
2022/02/06 12:30:48;;;;;;;7.57;1.27;;;;;;;;;;6246096;23;20011;-94
2022/02/06 12:33:37;;;;;;;0.50;0.50;;;;;;;;;;6245393;23;20335;-93
2022/02/06 12:38:52;;;;;;;1.15;0.80;;;;;;;;;;6245392;23;20474;-96
2022/02/06 12:41:28;;;;;;;0.90;0.68;;;;;;;;;;6217707;23;20012;-95
2022/02/06 12:44:02;;;;;;;2.65;1.05;;;;;;;;;;6242125;23;20047;-94
2022/02/06 12:46:32;;;;;;;1.92;0.50;;;;;;;;;;6218546;23;20078;-94
2022/02/06 12:49:01;;;;;;;1.33;0.80;;;;;;;;;;6218594;23;20005;-95
2022/02/06 12:51:35;;;;;;;1.92;0.70;;;;;;;;;;6245863;23;20010;-95
2022/02/06 12:54:04;;;;;;;0.60;0.60;;;;;;;;;;6245871;23;20407;-93
2022/02/06 12:56:34;;;;;;;2.17;0.77;;;;;;;;;;6218967;23;20012;-95
2022/02/06 12:59:30;;;;;;;0.70;0.70;;;;;;;;;;6245527;23;20054;-95
2022/02/06 13:02:13;;;;;;;1.95;0.90;;;;;;;;;;6245612;23;20012;-95
2022/02/06 13:04:45;;;;;;;1.30;0.70;;;;;;;;;;6238967;23;20004;-94
2022/02/06 13:07:14;;;;;;;0.68;0.68;;;;;;;;;;6245952;23;20005;-93
2022/02/06 13:09:43;;;;;;;0.75;0.55;;;;;;;;;;6245493;23;20335;-94
2022/02/06 13:12:25;;;;;;;1.52;1.10;;;;;;;;;;6245714;23;20001;-95
2022/02/06 13:26:20;;;;;;;1.02;0.75;;;;;;;;;;6246340;23;20390;-93
2022/02/06 13:31:37;;;;;;;1.98;0.80;;;;;;;;;;6244834;23;20012;-93
2022/02/06 13:34:19;;;;;;;1.25;0.77;;;;;;;;;;6218005;23;20406;-94
2022/02/06 13:36:55;;;;;;;2.13;1.20;;;;;;;;;;6244970;23;20390;-94
2022/02/06 13:39:33;;;;;;;1.88;1.17;;;;;;;;;;6218317;23;20004;-95
2022/02/06 13:42:16;;;;;;;1.77;1.15;;;;;;;;;;6245425;23;20012;-95
2022/02/06 13:44:42;;;;;;;1.98;0.90;;;;;;;;;;6245313;23;20063;-94
2022/02/06 13:47:11;;;;;;;1.15;0.88;;;;;;;;;;6218609;23;20012;-95
2022/02/06 13:49:44;;;;;;;1.48;1.00;;;;;;;;;;6245230;23;20004;-94
2022/02/06 13:52:13;;;;;;;1.05;0.95;;;;;;;;;;6244540;23;20008;-95
2022/02/06 13:54:47;;;;;;;0.63;0.63;;;;;;;;;;6245496;23;20338;-94
2022/02/06 13:57:18;;;;;;;2.38;0.88;;;;;;;;;;6245493;23;20015;-93
2022/02/06 13:59:47;;;;;;;1.67;0.82;;;;;;;;;;6245427;23;20370;-95
2022/02/06 14:02:13;;;;;;;2.58;1.27;;;;;;;;;;6245494;23;20084;-93
2022/02/06 14:04:42;;;;;;;3.90;1.10;;;;;;;;;;6218137;23;20005;-92
2022/02/06 14:07:21;;;;;;;0.47;0.47;;;;;;;;;;6244700;23;20004;-92
2022/02/06 14:10:01;;;;;;;0.93;0.77;;;;;;;;;;6245515;23;20080;-96
2022/02/06 14:12:29;;;;;;;2.17;0.80;;;;;;;;;;6245194;23;20008;-95
2022/02/06 14:15:00;;;;;;;0.80;0.80;;;;;;;;;;6218268;23;20461;-94
2022/02/06 14:17:30;;;;;;;1.08;0.82;;;;;;;;;;6245208;23;20019;-95
2022/02/06 14:19:58;;;;;;;2.95;1.25;;;;;;;;;;6245630;23;20022;-95
2022/02/06 14:22:32;;;;;;;1.35;1.20;;;;;;;;;;6218345;23;20109;-93
2022/02/06 14:25:27;;;;;;;0.70;0.70;;;;;;;;;;6243887;23;20019;-95
2022/02/06 14:27:54;;;;;;;3.75;0.82;;;;;;;;;;6225234;23;20027;-95
2022/02/06 14:30:31;;;;;;;1.20;0.80;;;;;;;;;;6245012;23;20004;-96
2022/02/06 14:33:26;;;;;;;2.92;0.75;;;;;;;;;;6244569;23;20456;-95
2022/02/06 14:36:21;;;;;;;;;;;;;;;;;;;;;
2022/02/06 14:39:00;;;;;;;0.82;0.73;;;;;;;;;;6152785;23;20177;-94
2022/02/06 14:41:35;;;;;;;0.52;0.52;;;;;;;;;;6152783;23;20010;-94
2022/02/06 14:44:26;;;;;;;0.82;0.82;;;;;;;;;;6152191;23;20030;-95
2022/02/06 14:47:09;;;;;;;2.90;0.60;;;;;;;;;;6152392;23;20017;-94
2022/02/06 14:50:03;;;;;;;0.35;0.35;;;;;;;;;;6151267;23;20408;-95
2022/02/06 14:52:47;;;;;;;0.50;0.50;;;;;;;;;;6152041;23;20006;-94
2022/02/06 14:55:38;;;;;;;;;;;;;;;;;;;;;
2022/02/06 15:00:49;;;;;;;0.60;0.57;;;;;;;;;;6152297;23;20016;-94
2022/02/06 15:06:18;;;;;;;4.60;1.15;;;;;;;;;;6139943;23;20009;-95
2022/02/06 15:09:32;;;;;;;5.90;1.73;;;;;;;;;;6152220;23;20460;-93
2022/02/06 15:12:07;;;;;;;11.35;3.17;;;;;;;;;;6148875;23;20364;-95
2022/02/06 15:14:36;;;;;;;4.13;2.08;;;;;;;;;;6244900;23;20387;-93
2022/02/06 15:17:41;;;;;;;1.30;0.98;;;;;;;;;;6244742;23;20065;-95
2022/02/06 15:20:13;;;;;;;2.13;0.95;;;;;;;;;;6244483;23;20010;-93
2022/02/06 15:23:11;;;;;;;0.68;0.68;;;;;;;;;;6244919;23;20439;-96
2022/02/06 15:25:43;;;;;;;1.13;0.70;;;;;;;;;;6180450;23;20000;-94
2022/02/06 15:28:12;;;;;;;1.75;0.90;;;;;;;;;;6244406;23;20008;-95
2022/02/06 15:33:48;;;;;;;2.17;1.20;;;;;;;;;;6243651;23;20001;-96
2022/02/06 15:42:26;;;;;;;4.60;0.50;;;;;;;;;;6038627;23;20019;-96
2022/02/06 15:44:54;;;;;;;0.63;0.63;;;;;;;;;;6087483;23;20002;-94
2022/02/06 15:50:29;;;;;;;0.52;0.50;;;;;;;;;;6081700;23;20003;-95
2022/02/06 15:53:29;;;;;;;;;;;;;;;;;;;;;
2022/02/06 15:55:58;;;;;;;1.70;0.98;;;;;;;;;;6096766;23;20093;-96
2022/02/06 15:58:42;;;;;;;0.68;0.68;;;;;;;;;;6096614;23;20009;-96
2022/02/06 16:01:37;;;;;;;1.35;0.63;;;;;;;;;;6072616;23;20010;-94
2022/02/06 16:10:02;;;;;;;3.72;0.60;;;;;;;;;;5995793;23;20016;-95
2022/02/06 16:15:52;;;;;;;0.50;0.50;;;;;;;;;;5954369;24;20012;-95
2022/02/06 16:18:18;;;;;;;0.50;0.50;;;;;;;;;;5991412;23;20043;-95
2022/02/06 16:20:45;;;;;;;1.00;0.68;;;;;;;;;;6010584;23;20004;-93
2022/02/06 16:23:11;;;;;;;0.47;0.47;;;;;;;;;;6010016;23;20770;-90
2022/02/06 16:25:38;;;;;;;0.68;0.68;;;;;;;;;;6017502;23;20008;-94
2022/02/06 16:28:04;;;;;;;0.53;0.50;;;;;;;;;;6010627;23;20035;-95
2022/02/06 16:30:30;;;;;;;0.50;0.50;;;;;;;;;;6010105;23;20399;-94
2022/02/06 16:33:32;;;;;;;0.50;0.50;;;;;;;;;;6017735;23;20016;-96
2022/02/06 16:36:00;;;;;;;0.85;0.85;;;;;;;;;;6015716;23;20058;-94
2022/02/06 16:38:27;;;;;;;0.90;0.85;;;;;;;;;;6010952;23;20053;-96
2022/02/06 16:40:59;;;;;;;;;;;;;;;;;;6010620;23;20008;-95
2022/02/06 16:43:26;;;;;;;2.38;1.00;;;;;;;;;;6020463;23;19932;-95
2022/02/06 16:46:21;;;;;;;1.92;1.17;;;;;;;;;;6038682;23;20017;-93
2022/02/06 16:48:38;;;;;;;0.82;0.60;;;;;;;;;;6035455;23;20022;-93
2022/02/06 16:51:04;;;;;;;3.35;0.80;;;;;;;;;;6096396;23;20002;-94
2022/02/06 16:53:34;;;;;;;1.38;0.80;;;;;;;;;;6219324;23;20010;-93
2022/02/06 16:56:00;;;;;;;1.60;1.40;;;;;;;;;;6220573;23;20038;-94
2022/02/06 16:58:26;;;;;;;1.25;1.15;;;;;;;;;;6247254;23;20432;-96
2022/02/06 17:00:52;;;;;;;1.33;1.23;;;;;;;;;;6247268;23;20000;-96
2022/02/06 17:03:19;;;;;;;1.25;0.93;;;;;;;;;;6249587;23;20012;-96
2022/02/06 17:05:48;;;;;;;1.83;1.08;;;;;;;;;;6248763;23;20007;-95
2022/02/06 17:08:14;;;;;;;4.07;0.95;;;;;;;;;;6247791;23;20006;-95
2022/02/06 17:10:42;;;;;;;1.17;1.10;;;;;;;;;;6220817;23;20000;-95
2022/02/06 17:13:08;;;;;;;1.58;1.10;;;;;;;;;;6247575;23;20004;-96
2022/02/06 17:15:34;;;;;;;1.65;0.68;;;;;;;;;;6220284;23;20458;-96
2022/02/06 17:18:00;;;;;;;1.70;0.90;;;;;;;;;;6247844;23;20012;-96
2022/02/06 17:20:26;;;;;;;0.90;0.80;;;;;;;;;;6246893;23;20427;-95
2022/02/06 17:22:52;;;;;;;1.15;0.90;;;;;;;;;;6247193;23;20023;-94
2022/02/06 17:25:18;;;;;;;1.38;1.02;;;;;;;;;;6247343;23;20324;-95
2022/02/06 17:27:44;;;;;;;0.68;0.68;;;;;;;;;;6247699;23;20004;-94
2022/02/06 17:30:11;;;;;;;0.90;0.63;;;;;;;;;;6247265;23;20011;-96
2022/02/06 17:32:37;;;;;;;1.23;1.13;;;;;;;;;;6247728;23;20001;-95
2022/02/06 17:35:03;;;;;;;2.65;0.73;;;;;;;;;;6220315;23;20024;-95
2022/02/06 17:37:29;;;;;;;3.13;2.30;;;;;;;;;;6220585;23;20061;-95
2022/02/06 17:39:57;;;;;;;3.83;1.30;;;;;;;;;;6247751;23;20004;-96
2022/02/06 17:42:23;;;;;;;1.85;1.33;;;;;;;;;;6246702;23;20023;-95
2022/02/06 17:44:50;;;;;;;1.58;0.80;;;;;;;;;;6247790;23;20004;-96
2022/02/06 17:47:17;;;;;;;3.13;1.03;;;;;;;;;;6248250;23;20027;-96
2022/02/06 17:49:44;;;;;;;1.80;1.30;;;;;;;;;;6248479;23;20219;-96
2022/02/06 17:52:11;;;;;;;1.40;1.30;;;;;;;;;;6247950;23;20011;-95
2022/02/06 17:54:42;;;;;;;3.28;1.38;;;;;;;;;;6247047;23;20079;-95
2022/02/06 17:57:08;;;;;;;0.70;0.70;;;;;;;;;;6246711;23;20365;-95
2022/02/06 17:59:34;;;;;;;2.20;1.10;;;;;;;;;;6247239;23;20004;-95
2022/02/06 18:02:01;;;;;;;6.25;1.92;;;;;;;;;;6219896;23;20100;-96
2022/02/06 18:04:27;;;;;;;0.82;0.82;;;;;;;;;;6247211;23;20004;-94
2022/02/06 18:06:53;;;;;;;0.43;0.43;;;;;;;;;;6247387;23;20379;-95
2022/02/06 18:09:21;;;;;;;1.90;0.90;;;;;;;;;;6248007;23;20004;-96
2022/02/06 18:11:48;;;;;;;1.55;0.90;;;;;;;;;;6247364;23;20007;-96
2022/02/06 18:14:14;;;;;;;2.05;0.82;;;;;;;;;;6247519;23;20011;-96
2022/02/06 18:16:43;;;;;;;0.95;0.82;;;;;;;;;;6247030;23;20411;-96
2022/02/06 18:19:22;;;;;;;2.75;1.05;;;;;;;;;;6169166;23;20004;-96
2022/02/06 18:21:48;;;;;;;2.30;0.70;;;;;;;;;;6247470;23;20000;-95
2022/02/06 18:24:18;;;;;;;1.77;0.80;;;;;;;;;;6220481;23;20506;-96
2022/02/06 18:26:56;;;;;;;1.55;0.60;;;;;;;;;;6247352;23;20016;-96
2022/02/06 18:29:25;;;;;;;1.95;0.70;;;;;;;;;;6247137;23;20000;-95
2022/02/06 18:32:02;;;;;;;4.13;1.08;;;;;;;;;;6246859;23;20011;-96
2022/02/06 18:34:37;;;;;;;1.02;0.52;;;;;;;;;;6246191;23;20011;-94
2022/02/06 18:37:06;;;;;;;1.42;0.60;;;;;;;;;;6219732;23;20000;-96
2022/02/06 18:39:35;;;;;;;3.20;1.10;;;;;;;;;;6246445;23;20004;-96
2022/02/06 18:42:02;;;;;;;0.30;0.30;;;;;;;;;;6246361;23;20411;-96
2022/02/06 18:44:36;;;;;;;3.63;0.80;;;;;;;;;;6242261;23;20008;-95
2022/02/06 18:47:08;;;;;;;1.13;0.82;;;;;;;;;;6246380;23;20323;-95
2022/02/06 18:49:35;;;;;;;0.60;0.60;;;;;;;;;;6246499;23;20004;-95
2022/02/06 18:52:12;;;;;;;1.98;1.60;;;;;;;;;;6245828;23;20057;-95
2022/02/06 18:54:44;;;;;;;1.35;0.73;;;;;;;;;;6246086;23;20004;-95
2022/02/06 18:57:17;;;;;;;3.28;1.27;;;;;;;;;;6219621;23;20008;-96
2022/02/06 18:59:50;;;;;;;2.10;1.63;;;;;;;;;;6192694;23;20004;-96
2022/02/06 19:02:19;;;;;;;1.65;0.75;;;;;;;;;;6241478;23;20012;-95
2022/02/06 19:04:48;;;;;;;0.90;0.60;;;;;;;;;;6245822;23;20012;-95
2022/02/06 19:07:19;;;;;;;0.45;0.45;;;;;;;;;;6219251;23;20001;-95
2022/02/06 19:09:46;;;;;;;0.73;0.50;;;;;;;;;;6242022;23;20016;-96
2022/02/06 19:12:21;;;;;;;3.47;1.23;;;;;;;;;;6246166;23;20384;-96
2022/02/06 19:14:47;;;;;;;1.00;0.90;;;;;;;;;;6220056;23;20008;-96
2022/02/06 19:17:13;;;;;;;5.93;2.25;;;;;;;;;;6220256;23;20054;-96
2022/02/06 19:19:45;;;;;;;3.08;0.98;;;;;;;;;;6246692;23;20012;-95
2022/02/06 19:22:14;;;;;;;12.57;3.83;;;;;;;;;;6245641;23;20004;-95
2022/02/06 19:24:41;;;;;;;1.25;0.63;;;;;;;;;;6245432;23;20004;-96
2022/02/06 19:27:13;;;;;;;1.48;0.90;;;;;;;;;;6245832;23;20000;-96
2022/02/06 19:29:39;;;;;;;1.67;0.73;;;;;;;;;;6219103;23;20012;-96
2022/02/06 19:32:11;;;;;;;4.55;1.55;;;;;;;;;;6218152;23;20589;-95
2022/02/06 19:35:04;;;;;;;1.38;0.90;;;;;;;;;;6246317;23;20000;-96
2022/02/06 19:37:30;;;;;;;2.47;1.33;;;;;;;;;;6246422;23;20450;-96
2022/02/06 19:40:01;;;;;;;2.35;0.85;;;;;;;;;;6219569;23;20001;-94
2022/02/06 19:42:40;;;;;;;2.38;1.50;;;;;;;;;;6244708;23;20091;-94
2022/02/06 19:45:12;;;;;;;1.05;0.73;;;;;;;;;;6245142;23;20000;-94
2022/02/06 19:47:39;;;;;;;2.38;0.88;;;;;;;;;;6218886;23;20136;-96
2022/02/06 19:50:05;;;;;;;1.90;0.77;;;;;;;;;;6241676;23;20373;-96
2022/02/06 19:52:32;;;;;;;1.48;1.20;;;;;;;;;;6245352;23;20008;-94
2022/02/06 19:54:59;;;;;;;4.07;1.30;;;;;;;;;;6244722;23;20024;-94
2022/02/06 19:57:27;;;;;;;5.32;2.15;;;;;;;;;;6243984;23;20008;-94
2022/02/06 19:59:56;;;;;;;;;;;;;;;;;;6245688;23;20004;-95
2022/02/06 20:02:25;;;;;;;1.00;0.90;;;;;;;;;;6244877;23;19998;-94
2022/02/06 20:04:54;;;;;;;1.35;1.05;;;;;;;;;;6244782;23;20001;-96
2022/02/06 20:07:21;;;;;;;1.45;1.35;;;;;;;;;;6245151;23;20004;-95
2022/02/06 20:09:52;;;;;;;1.05;0.82;;;;;;;;;;6245228;23;19996;-94
2022/02/06 20:12:20;;;;;;;1.65;0.98;;;;;;;;;;6244657;23;20012;-96
2022/02/06 20:14:46;;;;;;;1.67;1.33;;;;;;;;;;6212691;23;20015;-95
2022/02/06 20:17:12;;;;;;;1.27;1.13;;;;;;;;;;6245542;23;20071;-93
2022/02/06 20:19:38;;;;;;;1.15;0.80;;;;;;;;;;6218697;23;20050;-96
2022/02/06 20:22:04;;;;;;;2.90;1.10;;;;;;;;;;6245401;23;20008;-93
2022/02/06 20:24:31;;;;;;;2.05;1.17;;;;;;;;;;6245415;23;20085;-95
2022/02/06 20:26:57;;;;;;;1.60;0.93;;;;;;;;;;6245955;23;20096;-94
2022/02/06 20:29:23;;;;;;;2.08;1.25;;;;;;;;;;6220221;23;20031;-95
2022/02/06 20:31:49;;;;;;;1.00;0.85;;;;;;;;;;6219980;23;20585;-95
2022/02/06 20:34:17;;;;;;;2.47;1.55;;;;;;;;;;6246967;23;20016;-94
2022/02/06 20:36:43;;;;;;;1.77;1.10;;;;;;;;;;6219966;23;20012;-94
2022/02/06 20:39:09;;;;;;;2.45;1.00;;;;;;;;;;6247368;23;20455;-94
2022/02/06 20:41:35;;;;;;;0.55;0.55;;;;;;;;;;6220188;23;20083;-95
2022/02/06 20:44:01;;;;;;;3.35;2.50;;;;;;;;;;6246955;23;20012;-95
2022/02/06 20:46:28;;;;;;;4.15;1.17;;;;;;;;;;6247193;23;20023;-95
2022/02/06 20:48:54;;;;;;;1.10;1.00;;;;;;;;;;6246803;23;20004;-94
2022/02/06 20:51:21;;;;;;;1.05;0.90;;;;;;;;;;6246999;23;20008;-95
2022/02/06 20:53:47;;;;;;;1.60;0.88;;;;;;;;;;6246656;23;20000;-95
2022/02/06 20:56:14;;;;;;;3.13;0.90;;;;;;;;;;6246819;23;20049;-95
2022/02/06 20:58:44;;;;;;;1.38;0.95;;;;;;;;;;6247333;23;20381;-96
2022/02/06 21:01:11;;;;;;;2.28;1.25;;;;;;;;;;6247326;23;20039;-94
2022/02/06 21:03:37;;;;;;;1.77;0.60;;;;;;;;;;6246617;23;20058;-96
2022/02/06 21:06:03;;;;;;;2.28;1.08;;;;;;;;;;6246538;23;20406;-96
2022/02/06 21:08:29;;;;;;;1.67;1.13;;;;;;;;;;6219789;23;20087;-95
2022/02/06 21:10:59;;;;;;;3.72;0.98;;;;;;;;;;6246418;23;20050;-96
2022/02/06 21:13:25;;;;;;;0.98;0.88;;;;;;;;;;6246754;23;20005;-95
2022/02/06 21:15:51;;;;;;;2.08;1.15;;;;;;;;;;6220321;23;20331;-96
2022/02/06 21:18:18;;;;;;;0.90;0.80;;;;;;;;;;6246161;23;20008;-95
2022/02/06 21:20:44;;;;;;;1.65;1.00;;;;;;;;;;6246434;23;20075;-94
2022/02/06 21:23:10;;;;;;;1.95;0.80;;;;;;;;;;6219916;23;20043;-95
2022/02/06 21:25:36;;;;;;;1.13;0.57;;;;;;;;;;6246436;23;20016;-94
2022/02/06 21:28:04;;;;;;;6.85;1.10;;;;;;;;;;6245688;23;20075;-95
2022/02/06 21:30:30;;;;;;;2.00;1.23;;;;;;;;;;6246486;23;20009;-96
2022/02/06 21:32:56;;;;;;;3.15;1.40;;;;;;;;;;6245725;23;20008;-94
2022/02/06 21:35:22;;;;;;;0.65;0.65;;;;;;;;;;6246612;23;20026;-95
2022/02/06 21:37:48;;;;;;;1.17;0.90;;;;;;;;;;6219142;23;20034;-94
2022/02/06 21:40:15;;;;;;;4.32;1.38;;;;;;;;;;6219581;23;19996;-95
2022/02/06 21:42:42;;;;;;;1.88;1.25;;;;;;;;;;6246349;23;20047;-96
2022/02/06 21:45:08;;;;;;;;;;;;;;;;;;6246993;23;20004;-95
2022/02/06 21:47:35;;;;;;;2.55;0.73;;;;;;;;;;6246713;23;20358;-95
2022/02/06 21:50:04;;;;;;;1.35;1.25;;;;;;;;;;6245998;23;20069;-94
2022/02/06 21:52:31;;;;;;;1.98;0.90;;;;;;;;;;6218912;23;20004;-95
2022/02/06 21:55:00;;;;;;;3.15;1.95;;;;;;;;;;6246653;23;20064;-94
2022/02/06 21:57:26;;;;;;;2.60;1.38;;;;;;;;;;6220099;23;20004;-95
2022/02/06 21:59:53;;;;;;;1.85;1.35;;;;;;;;;;6247584;23;20000;-95
2022/02/06 22:02:19;;;;;;;5.07;1.70;;;;;;;;;;6246882;23;20028;-95
2022/02/06 22:04:53;;;;;;;3.70;1.38;;;;;;;;;;6219921;23;20004;-95
2022/02/06 22:07:30;;;;;;;6.85;1.10;;;;;;;;;;6219958;23;19996;-96
2022/02/06 22:31:00;;;;;;;1.35;1.05;;;;;;;;;;6246538;23;20074;-94
2022/02/06 22:33:26;;;;;;;0.80;0.80;;;;;;;;;;6245548;23;20008;-95
2022/02/06 22:35:52;;;;;;;0.90;0.90;;;;;;;;;;6219342;23;20012;-95
2022/02/06 22:38:18;;;;;;;2.53;1.05;;;;;;;;;;6247197;23;20103;-96
2022/02/06 22:40:45;;;;;;;1.08;0.90;;;;;;;;;;6246438;23;20007;-95
2022/02/06 22:43:11;;;;;;;0.50;0.50;;;;;;;;;;6219941;23;20012;-95
2022/02/06 22:45:37;;;;;;;0.98;0.90;;;;;;;;;;6219800;23;20000;-96
2022/02/06 22:48:03;;;;;;;0.73;0.68;;;;;;;;;;6246955;23;20339;-95
2022/02/06 22:50:30;;;;;;;1.67;1.42;;;;;;;;;;6245895;23;20004;-95
2022/02/06 22:52:56;;;;;;;0.88;0.65;;;;;;;;;;6220111;23;20031;-94
2022/02/06 22:55:25;;;;;;;2.17;1.98;;;;;;;;;;6246304;23;20004;-95
2022/02/06 22:57:51;;;;;;;0.73;0.52;;;;;;;;;;6246382;23;20011;-96
2022/02/06 23:00:36;;;;;;;0.70;0.63;;;;;;;;;;6219715;23;20010;-96
2022/02/06 23:03:02;;;;;;;3.00;1.45;;;;;;;;;;6246617;23;20035;-96
2022/02/06 23:05:28;;;;;;;1.00;0.70;;;;;;;;;;6219787;23;20443;-96
2022/02/06 23:07:55;;;;;;;2.05;0.98;;;;;;;;;;6219955;23;20007;-96
2022/02/06 23:10:21;;;;;;;0.60;0.60;;;;;;;;;;6220358;23;20000;-95
2022/02/06 23:12:47;;;;;;;1.73;0.90;;;;;;;;;;6220043;23;20004;-95
2022/02/06 23:15:13;;;;;;;2.20;1.55;;;;;;;;;;6219801;23;20058;-95
2022/02/06 23:17:39;;;;;;;2.50;0.93;;;;;;;;;;6219974;23;20008;-96
2022/02/06 23:20:10;;;;;;;1.63;0.65;;;;;;;;;;6246286;23;20303;-96
2022/02/06 23:22:36;;;;;;;1.63;1.33;;;;;;;;;;6246585;23;20016;-95
2022/02/06 23:25:02;;;;;;;0.40;0.40;;;;;;;;;;6219985;23;20005;-96
2022/02/06 23:27:28;;;;;;;0.90;0.80;;;;;;;;;;6246440;23;20010;-96
2022/02/06 23:29:55;;;;;;;0.60;0.50;;;;;;;;;;6246602;23;20001;-95
2022/02/06 23:32:21;;;;;;;0.30;0.30;;;;;;;;;;6246150;23;20011;-96